sensor_id;sensor_type;location;lat;lon;timestamp;P1;durP1;ratioP1;P2;durP2;ratioP2
20739;SDS011;10530;49.968;19.844;2022-09-09T00:04:03;8.95;;;4.18;;
20739;SDS011;10530;49.968;19.844;2022-09-09T00:09:12;6.80;;;3.47;;
20739;SDS011;10530;49.968;19.844;2022-09-09T00:19:53;8.33;;;4.23;;
20739;SDS011;10530;49.968;19.844;2022-09-09T00:26:03;7.22;;;3.67;;
20739;SDS011;10530;49.968;19.844;2022-09-09T00:30:53;8.95;;;3.88;;
20739;SDS011;10530;49.968;19.844;2022-09-09T00:35:57;7.47;;;3.90;;
20739;SDS011;10530;49.968;19.844;2022-09-09T00:51:38;7.75;;;3.88;;
20739;SDS011;10530;49.968;19.844;2022-09-09T01:02:28;10.17;;;3.60;;
20739;SDS011;10530;49.968;19.844;2022-09-09T01:07:37;6.90;;;3.58;;
20739;SDS011;10530;49.968;19.844;2022-09-09T01:12:42;10.40;;;4.00;;
20739;SDS011;10530;49.968;19.844;2022-09-09T01:28:57;10.20;;;3.80;;
20739;SDS011;10530;49.968;19.844;2022-09-09T01:34:11;8.15;;;3.88;;
20739;SDS011;10530;49.968;19.844;2022-09-09T01:39:16;8.40;;;4.10;;
20739;SDS011;10530;49.968;19.844;2022-09-09T01:44:23;9.15;;;4.35;;
20739;SDS011;10530;49.968;19.844;2022-09-09T01:49:27;7.78;;;3.67;;
20739;SDS011;10530;49.968;19.844;2022-09-09T01:54:31;8.97;;;4.03;;
20739;SDS011;10530;49.968;19.844;2022-09-09T02:04:50;11.53;;;4.13;;
20739;SDS011;10530;49.968;19.844;2022-09-09T02:10:37;10.77;;;4.50;;
20739;SDS011;10530;49.968;19.844;2022-09-09T02:16:03;10.38;;;3.83;;
20739;SDS011;10530;49.968;19.844;2022-09-09T02:21:15;10.83;;;4.27;;
20739;SDS011;10530;49.968;19.844;2022-09-09T02:26:20;9.50;;;4.68;;
20739;SDS011;10530;49.968;19.844;2022-09-09T02:31:33;10.70;;;4.30;;
20739;SDS011;10530;49.968;19.844;2022-09-09T02:36:41;10.65;;;4.70;;
20739;SDS011;10530;49.968;19.844;2022-09-09T02:41:46;12.70;;;4.78;;
20739;SDS011;10530;49.968;19.844;2022-09-09T02:52:05;9.23;;;4.20;;
20739;SDS011;10530;49.968;19.844;2022-09-09T02:57:32;10.60;;;4.33;;
20739;SDS011;10530;49.968;19.844;2022-09-09T03:02:38;9.68;;;4.53;;
20739;SDS011;10530;49.968;19.844;2022-09-09T03:07:42;11.65;;;5.00;;
20739;SDS011;10530;49.968;19.844;2022-09-09T03:12:45;10.00;;;4.40;;
20739;SDS011;10530;49.968;19.844;2022-09-09T03:17:49;12.30;;;4.80;;
20739;SDS011;10530;49.968;19.844;2022-09-09T03:22:52;10.47;;;4.20;;
20739;SDS011;10530;49.968;19.844;2022-09-09T03:27:56;12.32;;;5.03;;
20739;SDS011;10530;49.968;19.844;2022-09-09T03:32:58;10.45;;;4.53;;
20739;SDS011;10530;49.968;19.844;2022-09-09T03:38:06;11.73;;;3.93;;
20739;SDS011;10530;49.968;19.844;2022-09-09T03:43:10;11.07;;;4.45;;
20739;SDS011;10530;49.968;19.844;2022-09-09T03:48:13;11.40;;;4.17;;
20739;SDS011;10530;49.968;19.844;2022-09-09T03:53:17;11.05;;;4.35;;
20739;SDS011;10530;49.968;19.844;2022-09-09T03:58:22;12.65;;;4.63;;
20739;SDS011;10530;49.968;19.844;2022-09-09T04:03:33;8.40;;;3.80;;
20739;SDS011;10530;49.968;19.844;2022-09-09T04:08:36;9.25;;;4.00;;
20739;SDS011;10530;49.968;19.844;2022-09-09T04:13:41;12.57;;;4.50;;
20739;SDS011;10530;49.968;19.844;2022-09-09T04:18:46;11.07;;;4.45;;
20739;SDS011;10530;49.968;19.844;2022-09-09T04:23:51;9.40;;;4.13;;
20739;SDS011;10530;49.968;19.844;2022-09-09T04:28:54;12.40;;;3.97;;
20739;SDS011;10530;49.968;19.844;2022-09-09T04:33:58;10.52;;;4.65;;
20739;SDS011;10530;49.968;19.844;2022-09-09T04:39:04;13.37;;;5.00;;
20739;SDS011;10530;49.968;19.844;2022-09-09T04:44:07;9.65;;;4.63;;
20739;SDS011;10530;49.968;19.844;2022-09-09T04:49:10;10.93;;;4.55;;
20739;SDS011;10530;49.968;19.844;2022-09-09T04:54:17;12.23;;;4.70;;
20739;SDS011;10530;49.968;19.844;2022-09-09T04:59:21;9.55;;;4.30;;
20739;SDS011;10530;49.968;19.844;2022-09-09T05:04:28;10.37;;;4.07;;
20739;SDS011;10530;49.968;19.844;2022-09-09T05:09:32;12.02;;;4.53;;
20739;SDS011;10530;49.968;19.844;2022-09-09T05:14:35;10.30;;;4.72;;
20739;SDS011;10530;49.968;19.844;2022-09-09T05:19:40;10.43;;;4.80;;
20739;SDS011;10530;49.968;19.844;2022-09-09T05:24:43;11.30;;;4.80;;
20739;SDS011;10530;49.968;19.844;2022-09-09T05:29:47;14.57;;;5.67;;
20739;SDS011;10530;49.968;19.844;2022-09-09T05:34:49;12.02;;;5.45;;
20739;SDS011;10530;49.968;19.844;2022-09-09T05:39:53;13.90;;;6.53;;
20739;SDS011;10530;49.968;19.844;2022-09-09T05:44:57;14.00;;;5.93;;
20739;SDS011;10530;49.968;19.844;2022-09-09T05:50:01;12.55;;;6.10;;
20739;SDS011;10530;49.968;19.844;2022-09-09T05:55:04;12.57;;;5.60;;
20739;SDS011;10530;49.968;19.844;2022-09-09T06:00:08;10.50;;;4.95;;
20739;SDS011;10530;49.968;19.844;2022-09-09T06:05:14;11.15;;;5.80;;
20739;SDS011;10530;49.968;19.844;2022-09-09T06:10:18;12.30;;;5.60;;
20739;SDS011;10530;49.968;19.844;2022-09-09T06:15:21;11.80;;;5.55;;
20739;SDS011;10530;49.968;19.844;2022-09-09T06:20:24;9.17;;;4.97;;
20739;SDS011;10530;49.968;19.844;2022-09-09T06:25:27;10.68;;;4.53;;
20739;SDS011;10530;49.968;19.844;2022-09-09T06:30:30;10.60;;;4.80;;
20739;SDS011;10530;49.968;19.844;2022-09-09T06:35:33;8.90;;;4.20;;
20739;SDS011;10530;49.968;19.844;2022-09-09T06:40:36;8.18;;;3.70;;
20739;SDS011;10530;49.968;19.844;2022-09-09T06:45:40;10.13;;;4.70;;
20739;SDS011;10530;49.968;19.844;2022-09-09T06:50:43;10.60;;;4.50;;
20739;SDS011;10530;49.968;19.844;2022-09-09T06:55:46;9.80;;;5.00;;
20739;SDS011;10530;49.968;19.844;2022-09-09T07:00:50;10.57;;;5.20;;
20739;SDS011;10530;49.968;19.844;2022-09-09T07:05:53;11.55;;;5.10;;
20739;SDS011;10530;49.968;19.844;2022-09-09T07:11:04;8.93;;;4.83;;
20739;SDS011;10530;49.968;19.844;2022-09-09T07:16:15;8.10;;;4.68;;
20739;SDS011;10530;49.968;19.844;2022-09-09T07:21:20;8.45;;;4.60;;
20739;SDS011;10530;49.968;19.844;2022-09-09T07:26:24;8.20;;;4.20;;
20739;SDS011;10530;49.968;19.844;2022-09-09T07:31:30;9.15;;;4.80;;
20739;SDS011;10530;49.968;19.844;2022-09-09T07:36:42;8.00;;;3.57;;
20739;SDS011;10530;49.968;19.844;2022-09-09T07:41:47;6.90;;;3.75;;
20739;SDS011;10530;49.968;19.844;2022-09-09T07:46:53;7.93;;;3.90;;
20739;SDS011;10530;49.968;19.844;2022-09-09T07:52:01;6.83;;;3.53;;
20739;SDS011;10530;49.968;19.844;2022-09-09T07:57:06;5.85;;;2.95;;
20739;SDS011;10530;49.968;19.844;2022-09-09T08:02:11;4.80;;;2.60;;
20739;SDS011;10530;49.968;19.844;2022-09-09T08:07:15;5.45;;;2.70;;
20739;SDS011;10530;49.968;19.844;2022-09-09T08:12:25;8.25;;;4.00;;
20739;SDS011;10530;49.968;19.844;2022-09-09T08:17:30;5.53;;;3.00;;
20739;SDS011;10530;49.968;19.844;2022-09-09T08:22:37;5.13;;;2.60;;
20739;SDS011;10530;49.968;19.844;2022-09-09T08:27:40;5.93;;;3.30;;
20739;SDS011;10530;49.968;19.844;2022-09-09T08:32:43;6.72;;;3.03;;
20739;SDS011;10530;49.968;19.844;2022-09-09T08:37:48;5.15;;;2.90;;
20739;SDS011;10530;49.968;19.844;2022-09-09T08:42:55;4.20;;;2.60;;
20739;SDS011;10530;49.968;19.844;2022-09-09T08:53:16;4.07;;;2.40;;
20739;SDS011;10530;49.968;19.844;2022-09-09T08:58:29;4.72;;;2.70;;
20739;SDS011;10530;49.968;19.844;2022-09-09T09:09:35;4.60;;;2.60;;
20739;SDS011;10530;49.968;19.844;2022-09-09T09:15:11;4.78;;;2.50;;
20739;SDS011;10530;49.968;19.844;2022-09-09T09:20:35;4.30;;;2.23;;
20739;SDS011;10530;49.968;19.844;2022-09-09T09:26:05;3.70;;;2.05;;
20739;SDS011;10530;49.968;19.844;2022-09-09T09:31:13;4.13;;;2.00;;
20739;SDS011;10530;49.968;19.844;2022-09-09T09:36:21;4.23;;;2.03;;
20739;SDS011;10530;49.968;19.844;2022-09-09T09:41:32;4.20;;;2.13;;
20739;SDS011;10530;49.968;19.844;2022-09-09T09:46:42;4.03;;;2.40;;
20739;SDS011;10530;49.968;19.844;2022-09-09T09:51:47;3.92;;;2.10;;
20739;SDS011;10530;49.968;19.844;2022-09-09T09:56:50;4.07;;;2.60;;
20739;SDS011;10530;49.968;19.844;2022-09-09T10:01:54;5.20;;;2.07;;
20739;SDS011;10530;49.968;19.844;2022-09-09T10:06:57;3.50;;;2.30;;
20739;SDS011;10530;49.968;19.844;2022-09-09T10:22:18;4.45;;;2.30;;
20739;SDS011;10530;49.968;19.844;2022-09-09T10:38:16;4.07;;;1.73;;
20739;SDS011;10530;49.968;19.844;2022-09-09T10:54:11;5.30;;;1.77;;
20739;SDS011;10530;49.968;19.844;2022-09-09T10:59:42;5.47;;;2.33;;
20739;SDS011;10530;49.968;19.844;2022-09-09T11:04:57;4.93;;;1.67;;
20739;SDS011;10530;49.968;19.844;2022-09-09T11:10:17;4.10;;;2.25;;
20739;SDS011;10530;49.968;19.844;2022-09-09T11:15:43;3.78;;;2.10;;
20739;SDS011;10530;49.968;19.844;2022-09-09T11:20:53;4.57;;;2.07;;
20739;SDS011;10530;49.968;19.844;2022-09-09T11:26:02;3.60;;;2.15;;
20739;SDS011;10530;49.968;19.844;2022-09-09T11:41:37;4.20;;;1.80;;
20739;SDS011;10530;49.968;19.844;2022-09-09T11:46:40;4.20;;;2.00;;
20739;SDS011;10530;49.968;19.844;2022-09-09T11:51:44;4.80;;;2.45;;
20739;SDS011;10530;49.968;19.844;2022-09-09T11:56:46;4.60;;;1.83;;
20739;SDS011;10530;49.968;19.844;2022-09-09T12:17:20;3.30;;;1.60;;
20739;SDS011;10530;49.968;19.844;2022-09-09T12:22:35;3.23;;;1.70;;
20739;SDS011;10530;49.968;19.844;2022-09-09T12:27:58;3.40;;;1.70;;
20739;SDS011;10530;49.968;19.844;2022-09-09T12:33:13;5.43;;;1.80;;
20739;SDS011;10530;49.968;19.844;2022-09-09T12:38:26;4.37;;;1.70;;
20739;SDS011;10530;49.968;19.844;2022-09-09T12:43:38;4.30;;;1.70;;
20739;SDS011;10530;49.968;19.844;2022-09-09T12:48:40;4.30;;;1.60;;
20739;SDS011;10530;49.968;19.844;2022-09-09T12:53:47;3.33;;;1.73;;
20739;SDS011;10530;49.968;19.844;2022-09-09T12:58:52;3.60;;;1.70;;
20739;SDS011;10530;49.968;19.844;2022-09-09T13:03:57;3.83;;;1.70;;
20739;SDS011;10530;49.968;19.844;2022-09-09T13:09:00;3.85;;;1.55;;
20739;SDS011;10530;49.968;19.844;2022-09-09T13:14:04;4.00;;;1.80;;
20739;SDS011;10530;49.968;19.844;2022-09-09T13:19:09;3.15;;;1.55;;
20739;SDS011;10530;49.968;19.844;2022-09-09T13:24:23;3.67;;;1.70;;
20739;SDS011;10530;49.968;19.844;2022-09-09T13:29:32;3.43;;;1.60;;
20739;SDS011;10530;49.968;19.844;2022-09-09T13:34:35;3.40;;;1.60;;
20739;SDS011;10530;49.968;19.844;2022-09-09T13:39:38;4.53;;;1.50;;
20739;SDS011;10530;49.968;19.844;2022-09-09T13:44:41;4.03;;;1.70;;
20739;SDS011;10530;49.968;19.844;2022-09-09T13:49:43;4.20;;;1.60;;
20739;SDS011;10530;49.968;19.844;2022-09-09T13:54:48;3.40;;;1.60;;
20739;SDS011;10530;49.968;19.844;2022-09-09T13:59:53;3.75;;;1.60;;
20739;SDS011;10530;49.968;19.844;2022-09-09T14:05:07;4.27;;;1.60;;
20739;SDS011;10530;49.968;19.844;2022-09-09T14:10:11;5.18;;;1.33;;
20739;SDS011;10530;49.968;19.844;2022-09-09T14:15:14;3.60;;;1.60;;
20739;SDS011;10530;49.968;19.844;2022-09-09T14:20:17;2.77;;;1.30;;
20739;SDS011;10530;49.968;19.844;2022-09-09T14:25:21;3.42;;;1.50;;
20739;SDS011;10530;49.968;19.844;2022-09-09T14:30:24;3.57;;;1.70;;
20739;SDS011;10530;49.968;19.844;2022-09-09T14:35:26;3.55;;;1.73;;
20739;SDS011;10530;49.968;19.844;2022-09-09T14:40:30;3.30;;;1.70;;
20739;SDS011;10530;49.968;19.844;2022-09-09T14:45:33;3.03;;;1.47;;
20739;SDS011;10530;49.968;19.844;2022-09-09T14:50:39;3.47;;;1.70;;
20739;SDS011;10530;49.968;19.844;2022-09-09T14:55:43;3.13;;;1.60;;
20739;SDS011;10530;49.968;19.844;2022-09-09T15:00:45;3.58;;;1.40;;
20739;SDS011;10530;49.968;19.844;2022-09-09T15:05:48;4.18;;;1.55;;
20739;SDS011;10530;49.968;19.844;2022-09-09T15:10:58;3.17;;;1.60;;
20739;SDS011;10530;49.968;19.844;2022-09-09T15:16:09;3.42;;;1.70;;
20739;SDS011;10530;49.968;19.844;2022-09-09T15:21:15;3.77;;;1.60;;
20739;SDS011;10530;49.968;19.844;2022-09-09T15:26:19;3.03;;;1.60;;
20739;SDS011;10530;49.968;19.844;2022-09-09T15:31:23;4.45;;;1.70;;
20739;SDS011;10530;49.968;19.844;2022-09-09T15:36:36;3.73;;;1.60;;
20739;SDS011;10530;49.968;19.844;2022-09-09T15:41:41;4.07;;;2.17;;
20739;SDS011;10530;49.968;19.844;2022-09-09T15:46:49;3.50;;;1.70;;
20739;SDS011;10530;49.968;19.844;2022-09-09T15:51:54;3.75;;;1.65;;
20739;SDS011;10530;49.968;19.844;2022-09-09T15:57:00;3.60;;;1.80;;
20739;SDS011;10530;49.968;19.844;2022-09-09T16:02:06;4.33;;;1.77;;
20739;SDS011;10530;49.968;19.844;2022-09-09T16:07:09;4.47;;;1.80;;
20739;SDS011;10530;49.968;19.844;2022-09-09T16:12:12;5.47;;;2.00;;
20739;SDS011;10530;49.968;19.844;2022-09-09T16:17:16;4.50;;;2.00;;
20739;SDS011;10530;49.968;19.844;2022-09-09T16:22:21;6.05;;;1.90;;
20739;SDS011;10530;49.968;19.844;2022-09-09T16:27:24;5.60;;;2.10;;
20739;SDS011;10530;49.968;19.844;2022-09-09T16:32:26;4.13;;;2.20;;
20739;SDS011;10530;49.968;19.844;2022-09-09T16:37:30;6.07;;;2.30;;
20739;SDS011;10530;49.968;19.844;2022-09-09T16:42:35;4.60;;;2.20;;
20739;SDS011;10530;49.968;19.844;2022-09-09T16:47:40;5.03;;;2.35;;
20739;SDS011;10530;49.968;19.844;2022-09-09T16:52:43;6.53;;;2.10;;
20739;SDS011;10530;49.968;19.844;2022-09-09T16:57:46;4.50;;;2.15;;
20739;SDS011;10530;49.968;19.844;2022-09-09T17:02:52;5.77;;;2.57;;
20739;SDS011;10530;49.968;19.844;2022-09-09T17:07:55;8.82;;;2.80;;
20739;SDS011;10530;49.968;19.844;2022-09-09T17:13:00;6.32;;;2.50;;
20739;SDS011;10530;49.968;19.844;2022-09-09T17:18:04;5.17;;;2.50;;
20739;SDS011;10530;49.968;19.844;2022-09-09T17:23:07;6.97;;;2.65;;
20739;SDS011;10530;49.968;19.844;2022-09-09T17:28:11;7.43;;;3.00;;
20739;SDS011;10530;49.968;19.844;2022-09-09T17:33:14;9.10;;;4.22;;
20739;SDS011;10530;49.968;19.844;2022-09-09T17:38:17;15.73;;;7.50;;
20739;SDS011;10530;49.968;19.844;2022-09-09T17:43:20;13.33;;;8.20;;
20739;SDS011;10530;49.968;19.844;2022-09-09T17:48:23;14.50;;;9.02;;
20739;SDS011;10530;49.968;19.844;2022-09-09T17:53:26;12.43;;;7.43;;
20739;SDS011;10530;49.968;19.844;2022-09-09T17:58:29;12.25;;;6.97;;
20739;SDS011;10530;49.968;19.844;2022-09-09T18:03:35;15.05;;;8.50;;
20739;SDS011;10530;49.968;19.844;2022-09-09T18:08:39;15.47;;;9.10;;
20739;SDS011;10530;49.968;19.844;2022-09-09T18:13:42;13.68;;;7.97;;
20739;SDS011;10530;49.968;19.844;2022-09-09T18:18:50;17.27;;;7.57;;
20739;SDS011;10530;49.968;19.844;2022-09-09T18:23:53;12.13;;;6.60;;
20739;SDS011;10530;49.968;19.844;2022-09-09T18:28:57;13.07;;;6.72;;
20739;SDS011;10530;49.968;19.844;2022-09-09T18:34:02;10.97;;;6.03;;
20739;SDS011;10530;49.968;19.844;2022-09-09T18:39:06;11.88;;;6.20;;
20739;SDS011;10530;49.968;19.844;2022-09-09T18:44:15;12.73;;;6.50;;
20739;SDS011;10530;49.968;19.844;2022-09-09T18:49:20;9.82;;;5.43;;
20739;SDS011;10530;49.968;19.844;2022-09-09T18:54:27;10.57;;;5.60;;
20739;SDS011;10530;49.968;19.844;2022-09-09T18:59:32;11.50;;;5.27;;
20739;SDS011;10530;49.968;19.844;2022-09-09T19:04:35;9.07;;;5.00;;
20739;SDS011;10530;49.968;19.844;2022-09-09T19:09:38;9.83;;;5.23;;
20739;SDS011;10530;49.968;19.844;2022-09-09T19:14:41;10.00;;;5.43;;
20739;SDS011;10530;49.968;19.844;2022-09-09T19:19:45;10.20;;;5.63;;
20739;SDS011;10530;49.968;19.844;2022-09-09T19:24:48;9.03;;;5.23;;
20739;SDS011;10530;49.968;19.844;2022-09-09T19:29:52;9.60;;;5.45;;
20739;SDS011;10530;49.968;19.844;2022-09-09T19:34:57;9.40;;;5.13;;
20739;SDS011;10530;49.968;19.844;2022-09-09T19:40:00;8.50;;;5.45;;
20739;SDS011;10530;49.968;19.844;2022-09-09T19:45:04;9.85;;;5.57;;
20739;SDS011;10530;49.968;19.844;2022-09-09T19:50:09;10.00;;;5.40;;
20739;SDS011;10530;49.968;19.844;2022-09-09T19:55:11;9.52;;;5.18;;
20739;SDS011;10530;49.968;19.844;2022-09-09T20:00:14;10.17;;;5.20;;
20739;SDS011;10530;49.968;19.844;2022-09-09T20:05:17;8.45;;;4.68;;
20739;SDS011;10530;49.968;19.844;2022-09-09T20:10:21;10.50;;;5.65;;
20739;SDS011;10530;49.968;19.844;2022-09-09T20:15:25;9.87;;;5.20;;
20739;SDS011;10530;49.968;19.844;2022-09-09T20:20:28;10.27;;;5.35;;
20739;SDS011;10530;49.968;19.844;2022-09-09T20:25:34;8.77;;;4.93;;
20739;SDS011;10530;49.968;19.844;2022-09-09T20:30:38;10.98;;;5.30;;
20739;SDS011;10530;49.968;19.844;2022-09-09T20:35:41;9.60;;;5.20;;
20739;SDS011;10530;49.968;19.844;2022-09-09T20:40:43;9.70;;;5.20;;
20739;SDS011;10530;49.968;19.844;2022-09-09T20:45:46;10.18;;;5.78;;
20739;SDS011;10530;49.968;19.844;2022-09-09T20:50:50;11.73;;;5.23;;
20739;SDS011;10530;49.968;19.844;2022-09-09T20:55:57;10.20;;;5.25;;
20739;SDS011;10530;49.968;19.844;2022-09-09T21:01:04;10.95;;;5.35;;
20739;SDS011;10530;49.968;19.844;2022-09-09T21:06:08;10.30;;;5.30;;
20739;SDS011;10530;49.968;19.844;2022-09-09T21:11:11;11.48;;;5.40;;
20739;SDS011;10530;49.968;19.844;2022-09-09T21:16:16;11.23;;;5.70;;
20739;SDS011;10530;49.968;19.844;2022-09-09T21:21:22;13.18;;;5.05;;
20739;SDS011;10530;49.968;19.844;2022-09-09T21:26:27;13.45;;;5.50;;
20739;SDS011;10530;49.968;19.844;2022-09-09T21:31:30;12.50;;;5.60;;
20739;SDS011;10530;49.968;19.844;2022-09-09T21:36:33;13.75;;;5.97;;
20739;SDS011;10530;49.968;19.844;2022-09-09T21:41:37;10.43;;;5.47;;
20739;SDS011;10530;49.968;19.844;2022-09-09T21:46:40;10.27;;;4.97;;
20739;SDS011;10530;49.968;19.844;2022-09-09T21:51:44;10.75;;;5.03;;
20739;SDS011;10530;49.968;19.844;2022-09-09T21:56:48;10.40;;;5.20;;
20739;SDS011;10530;49.968;19.844;2022-09-09T22:01:53;14.82;;;6.32;;
20739;SDS011;10530;49.968;19.844;2022-09-09T22:06:56;10.73;;;5.40;;
20739;SDS011;10530;49.968;19.844;2022-09-09T22:11:59;14.32;;;6.05;;
20739;SDS011;10530;49.968;19.844;2022-09-09T22:17:02;12.88;;;5.80;;
20739;SDS011;10530;49.968;19.844;2022-09-09T22:22:06;10.90;;;5.83;;
20739;SDS011;10530;49.968;19.844;2022-09-09T22:27:09;13.32;;;5.65;;
20739;SDS011;10530;49.968;19.844;2022-09-09T22:32:13;12.67;;;5.70;;
20739;SDS011;10530;49.968;19.844;2022-09-09T22:37:16;14.75;;;5.75;;
20739;SDS011;10530;49.968;19.844;2022-09-09T22:42:20;11.48;;;5.85;;
20739;SDS011;10530;49.968;19.844;2022-09-09T22:47:23;13.33;;;5.70;;
20739;SDS011;10530;49.968;19.844;2022-09-09T22:52:29;14.45;;;6.55;;
20739;SDS011;10530;49.968;19.844;2022-09-09T22:57:35;13.23;;;6.90;;
20739;SDS011;10530;49.968;19.844;2022-09-09T23:02:38;14.80;;;7.07;;
20739;SDS011;10530;49.968;19.844;2022-09-09T23:07:41;16.08;;;7.55;;
20739;SDS011;10530;49.968;19.844;2022-09-09T23:12:45;16.30;;;7.43;;
20739;SDS011;10530;49.968;19.844;2022-09-09T23:17:47;18.35;;;7.88;;
20739;SDS011;10530;49.968;19.844;2022-09-09T23:22:52;19.03;;;8.60;;
20739;SDS011;10530;49.968;19.844;2022-09-09T23:27:55;17.77;;;7.95;;
20739;SDS011;10530;49.968;19.844;2022-09-09T23:32:59;16.33;;;7.97;;
20739;SDS011;10530;49.968;19.844;2022-09-09T23:38:02;18.57;;;8.67;;
20739;SDS011;10530;49.968;19.844;2022-09-09T23:43:06;19.90;;;8.98;;
20739;SDS011;10530;49.968;19.844;2022-09-09T23:48:09;18.67;;;8.50;;
20739;SDS011;10530;49.968;19.844;2022-09-09T23:53:12;17.75;;;8.43;;
20739;SDS011;10530;49.968;19.844;2022-09-09T23:58:16;19.50;;;8.95;;
